createdAt,value
2018-07-23T00:02:04.344Z,99.90
2018-07-23T00:04:32.838Z,99.90
2018-07-23T00:07:01.702Z,99.90
2018-07-23T00:09:30.219Z,99.90
2018-07-23T00:11:58.720Z,99.90
2018-07-23T00:14:27.251Z,99.90
2018-07-23T00:16:55.723Z,99.90
2018-07-23T00:19:24.265Z,99.90
2018-07-23T00:21:52.778Z,99.90
2018-07-23T00:24:21.278Z,99.90
2018-07-23T00:26:49.796Z,99.90
2018-07-23T00:29:18.341Z,99.90
2018-07-23T00:31:46.850Z,99.90
2018-07-23T00:34:15.375Z,99.90
2018-07-23T00:36:43.903Z,99.90
2018-07-23T00:39:12.418Z,99.90
2018-07-23T00:41:40.900Z,99.90
2018-07-23T00:44:09.403Z,99.90
2018-07-23T00:46:38.238Z,99.90
2018-07-23T00:49:06.847Z,99.90
2018-07-23T00:51:35.329Z,99.90
2018-07-23T00:54:03.874Z,99.90
2018-07-23T00:56:32.722Z,99.90
2018-07-23T00:59:01.222Z,99.90
2018-07-23T01:01:29.705Z,99.90
2018-07-23T01:03:58.214Z,99.90
2018-07-23T01:08:54.898Z,99.90
2018-07-23T01:11:23.403Z,99.90
2018-07-23T01:13:51.882Z,99.90
2018-07-23T01:16:20.379Z,99.90
2018-07-23T01:18:48.890Z,99.90
2018-07-23T01:21:17.548Z,99.90
2018-07-23T01:23:46.027Z,99.90
2018-07-23T01:26:14.531Z,99.90
2018-07-23T01:28:43.075Z,99.90
2018-07-23T01:31:11.569Z,99.90
2018-07-23T01:33:40.051Z,99.90
2018-07-23T01:36:08.563Z,99.90
2018-07-23T01:38:37.022Z,99.90
2018-07-23T01:41:05.587Z,99.90
2018-07-23T01:43:34.369Z,99.90
2018-07-23T01:46:02.854Z,99.90
2018-07-23T01:48:31.328Z,99.90
2018-07-23T01:50:59.823Z,99.90
2018-07-23T01:53:28.301Z,99.90
2018-07-23T01:55:57.190Z,99.90
2018-07-23T01:58:25.694Z,99.90
2018-07-23T02:00:54.242Z,99.90
2018-07-23T02:03:22.731Z,99.90
2018-07-23T02:05:51.231Z,99.90
2018-07-23T02:08:19.752Z,99.90
2018-07-23T02:10:48.288Z,99.90
2018-07-23T02:13:16.774Z,99.90
2018-07-23T02:15:45.271Z,99.90
2018-07-23T02:18:13.781Z,99.90
2018-07-23T02:20:42.450Z,99.90
2018-07-23T02:23:10.982Z,99.90
2018-07-23T02:25:39.469Z,99.90
2018-07-23T02:28:08.304Z,99.90
2018-07-23T02:30:36.823Z,99.90
2018-07-23T02:33:05.796Z,99.90
2018-07-23T02:35:34.856Z,99.90
2018-07-23T02:38:03.359Z,99.90
2018-07-23T02:40:31.930Z,99.90
2018-07-23T02:43:00.473Z,99.90
2018-07-23T02:45:29.164Z,99.90
2018-07-23T02:47:57.983Z,99.90
2018-07-23T02:50:26.492Z,99.90
2018-07-23T02:52:54.977Z,99.90
2018-07-23T02:55:23.498Z,99.90
2018-07-23T03:00:20.171Z,99.90
2018-07-23T03:02:48.649Z,99.90
2018-07-23T03:05:17.159Z,99.90
2018-07-23T03:07:45.695Z,99.90
2018-07-23T03:10:14.204Z,99.90
2018-07-23T03:12:42.731Z,99.90
2018-07-23T03:15:11.234Z,99.90
2018-07-23T03:17:40.112Z,99.90
2018-07-23T03:20:08.686Z,99.90
2018-07-23T03:22:37.210Z,99.90
2018-07-23T03:25:05.702Z,99.90
2018-07-23T03:27:34.215Z,99.90
2018-07-23T03:30:02.744Z,99.90
2018-07-23T03:32:31.243Z,99.90
2018-07-23T03:34:59.767Z,99.90
2018-07-23T03:37:28.263Z,99.90
2018-07-23T03:39:56.811Z,99.90
2018-07-23T03:42:25.372Z,99.90
2018-07-23T03:44:53.845Z,99.90
2018-07-23T03:47:22.338Z,99.90
2018-07-23T03:49:50.852Z,99.90
2018-07-23T03:52:19.370Z,99.90
2018-07-23T03:54:47.882Z,99.90
2018-07-23T03:57:16.387Z,99.90
2018-07-23T03:59:44.888Z,99.90
2018-07-23T04:02:13.430Z,99.90
2018-07-23T04:04:41.944Z,99.90
2018-07-23T04:07:10.438Z,99.90
2018-07-23T04:09:38.928Z,99.90
2018-07-23T04:12:07.454Z,99.90
2018-07-23T04:14:35.915Z,99.90
2018-07-23T04:17:04.799Z,99.90
2018-07-23T04:19:33.850Z,99.90
2018-07-23T04:22:02.390Z,99.90
2018-07-23T04:24:30.881Z,99.90
2018-07-23T04:26:59.408Z,99.90
2018-07-23T04:29:27.898Z,99.90
2018-07-23T04:31:56.419Z,99.90
2018-07-23T04:34:24.892Z,99.90
2018-07-23T04:36:53.388Z,99.90
2018-07-23T04:39:21.890Z,99.90
2018-07-23T04:41:50.420Z,99.90
2018-07-23T04:44:18.895Z,99.90
2018-07-23T04:46:47.423Z,99.90
2018-07-23T04:49:15.954Z,99.90
2018-07-23T04:51:44.640Z,99.90
2018-07-23T04:54:13.118Z,99.90
2018-07-23T04:56:41.636Z,99.90
2018-07-23T04:59:10.288Z,99.90
2018-07-23T05:01:39.151Z,99.90
2018-07-23T05:04:07.637Z,99.90
2018-07-23T05:06:36.131Z,99.90
2018-07-23T05:09:08.361Z,99.90
2018-07-23T05:11:36.907Z,99.90
2018-07-23T05:14:05.537Z,99.90
2018-07-23T05:16:34.075Z,99.90
2018-07-23T05:19:02.708Z,99.90
2018-07-23T05:21:31.176Z,99.90
2018-07-23T05:23:59.692Z,99.90
2018-07-23T05:26:28.819Z,99.90
2018-07-23T05:28:57.290Z,99.90
2018-07-23T05:31:25.787Z,99.90
2018-07-23T05:33:54.271Z,99.90
2018-07-23T05:36:22.770Z,99.90
2018-07-23T05:38:51.262Z,99.90
2018-07-23T05:41:19.724Z,99.90
2018-07-23T05:43:48.251Z,99.90
2018-07-23T05:46:16.783Z,99.90
2018-07-23T05:48:45.293Z,99.90
2018-07-23T05:51:13.750Z,99.90
2018-07-23T05:53:42.266Z,99.90
2018-07-23T05:56:10.751Z,99.90
2018-07-23T05:58:39.455Z,99.90
2018-07-23T06:01:07.962Z,99.90
2018-07-23T06:03:36.519Z,99.90
2018-07-23T06:06:05.200Z,99.90
2018-07-23T06:08:33.743Z,99.90
2018-07-23T06:11:02.295Z,99.90
2018-07-23T06:15:59.231Z,99.90
2018-07-23T06:18:27.770Z,99.90
2018-07-23T06:20:56.267Z,99.90
2018-07-23T06:23:24.773Z,99.90
2018-07-23T06:25:53.599Z,99.90
2018-07-23T06:28:22.205Z,99.90
2018-07-23T06:30:50.731Z,92.40
2018-07-23T06:33:19.279Z,76.50
2018-07-23T06:35:47.758Z,69.80
2018-07-23T06:38:16.367Z,63.60
2018-07-23T06:40:44.859Z,57.70
2018-07-23T06:43:13.375Z,55.20
2018-07-23T06:48:11.415Z,51.10
2018-07-23T06:50:40.475Z,50.00
2018-07-23T06:53:09.559Z,49.10
2018-07-23T06:55:38.647Z,47.40
2018-07-23T06:58:08.348Z,47.10
2018-07-23T07:00:37.619Z,46.10
2018-07-23T07:03:07.350Z,46.80
2018-07-23T07:05:36.495Z,46.60
2018-07-23T07:08:05.886Z,46.00
2018-07-23T07:10:34.996Z,45.30
2018-07-23T07:13:04.167Z,45.50
2018-07-23T07:15:33.231Z,46.30
2018-07-23T07:18:02.282Z,47.00
2018-07-23T07:20:31.382Z,49.70
2018-07-23T07:23:00.423Z,53.60
2018-07-23T07:25:29.569Z,57.50
2018-07-23T07:27:58.824Z,62.00
2018-07-23T07:30:27.927Z,64.20
2018-07-23T07:32:57.425Z,70.10
2018-07-23T07:35:25.954Z,71.40
2018-07-23T07:37:54.575Z,75.00
2018-07-23T07:40:23.283Z,78.00
2018-07-23T07:42:51.792Z,78.70
2018-07-23T07:45:20.392Z,80.40
2018-07-23T07:47:48.895Z,81.50
2018-07-23T07:50:18.444Z,81.80
2018-07-23T07:52:47.001Z,81.10
2018-07-23T07:55:15.525Z,80.60
2018-07-23T07:57:44.026Z,82.60
2018-07-23T08:00:12.547Z,80.40
2018-07-23T08:02:41.038Z,76.80
2018-07-23T08:05:09.644Z,76.20
2018-07-23T08:07:38.741Z,69.00
2018-07-23T08:10:07.835Z,66.30
2018-07-23T08:12:36.964Z,62.40
2018-07-23T08:15:06.616Z,59.20
2018-07-23T08:17:35.738Z,59.30
2018-07-23T08:20:05.320Z,57.90
2018-07-23T08:22:34.618Z,56.20
2018-07-23T08:25:03.822Z,53.60
2018-07-23T08:27:33.128Z,53.60
2018-07-23T08:30:02.597Z,54.00
2018-07-23T08:32:31.659Z,54.50
2018-07-23T08:35:00.737Z,53.50
2018-07-23T08:37:29.808Z,53.00
2018-07-23T08:39:58.947Z,53.00
2018-07-23T08:42:28.133Z,54.10
2018-07-23T08:44:57.221Z,55.40
2018-07-23T08:47:26.275Z,55.50
2018-07-23T08:49:55.708Z,57.70
2018-07-23T08:52:24.818Z,58.60
2018-07-23T08:54:53.920Z,58.70
2018-07-23T08:57:23.046Z,61.80
2018-07-23T08:59:52.282Z,61.10
2018-07-23T09:02:21.437Z,58.40
2018-07-23T09:04:50.664Z,61.20
2018-07-23T09:07:19.712Z,61.70
2018-07-23T09:09:48.839Z,59.20
2018-07-23T09:12:17.899Z,60.30
2018-07-23T09:14:46.958Z,60.50
2018-07-23T09:17:15.529Z,61.50
2018-07-23T09:19:44.180Z,60.60
2018-07-23T09:22:12.721Z,59.10
2018-07-23T09:24:41.859Z,62.90
2018-07-23T09:27:10.360Z,64.80
2018-07-23T09:29:38.877Z,63.50
2018-07-23T09:32:07.362Z,63.30
2018-07-23T09:34:35.870Z,63.70
2018-07-23T09:37:04.425Z,63.10
2018-07-23T09:39:33.198Z,65.70
2018-07-23T09:42:01.671Z,61.60
2018-07-23T09:44:30.189Z,62.10
2018-07-23T09:46:58.695Z,62.40
2018-07-23T09:49:27.205Z,62.30
2018-07-23T09:51:56.085Z,62.60
2018-07-23T09:54:24.930Z,61.40
2018-07-23T09:56:53.698Z,60.60
2018-07-23T09:59:22.175Z,58.60
2018-07-23T10:01:51.055Z,59.70
2018-07-23T10:04:19.531Z,61.80
2018-07-23T10:06:48.037Z,59.60
2018-07-23T10:12:15.428Z,60.70
2018-07-23T10:14:43.909Z,58.50
2018-07-23T10:17:12.379Z,58.70
2018-07-23T10:19:40.856Z,57.70
2018-07-23T10:22:09.411Z,61.20
2018-07-23T10:24:37.947Z,58.40
2018-07-23T10:27:06.490Z,57.90
2018-07-23T10:29:35.035Z,58.30
2018-07-23T10:32:03.711Z,58.40
2018-07-23T10:34:32.194Z,59.10
2018-07-23T10:37:00.708Z,62.10
2018-07-23T10:39:29.212Z,57.90
2018-07-23T10:41:57.698Z,60.70
2018-07-23T10:44:26.186Z,61.30
2018-07-23T10:46:55.029Z,63.20
2018-07-23T10:49:23.508Z,61.90
2018-07-23T10:51:52.011Z,59.60
2018-07-23T10:54:20.518Z,59.60
2018-07-23T10:56:49.059Z,58.70
2018-07-23T10:59:17.579Z,61.30
2018-07-23T11:01:46.112Z,56.70
2018-07-23T11:04:14.641Z,58.20
2018-07-23T11:06:43.681Z,60.30
2018-07-23T11:09:12.140Z,59.40
2018-07-23T11:11:40.688Z,58.40
2018-07-23T11:14:09.206Z,56.80
2018-07-23T11:16:37.754Z,57.50
2018-07-23T11:19:06.350Z,58.20
2018-07-23T11:21:34.867Z,58.50
2018-07-23T11:24:06.854Z,59.70
2018-07-23T11:26:35.896Z,61.70
2018-07-23T11:29:04.555Z,63.40
2018-07-23T11:31:33.102Z,63.60
2018-07-23T11:34:01.595Z,61.50
2018-07-23T11:36:32.449Z,61.70
2018-07-23T11:39:01.491Z,64.20
2018-07-23T11:41:30.096Z,61.30
2018-07-23T11:43:58.695Z,60.50
2018-07-23T11:46:27.195Z,62.60
2018-07-23T11:48:55.683Z,63.30
2018-07-23T11:51:24.178Z,62.30
2018-07-23T11:53:52.696Z,63.60
2018-07-23T11:56:21.390Z,63.70
2018-07-23T11:58:49.900Z,65.60
2018-07-23T12:01:22.445Z,65.00
2018-07-23T12:03:51.733Z,63.10
2018-07-23T12:06:20.651Z,64.80
2018-07-23T12:08:49.602Z,64.80
2018-07-23T12:11:18.142Z,64.50
2018-07-23T12:13:46.647Z,64.40
2018-07-23T12:16:15.183Z,65.40
2018-07-23T12:18:43.662Z,64.20
2018-07-23T12:21:12.206Z,64.10
2018-07-23T12:23:40.682Z,65.10
2018-07-23T12:26:09.269Z,65.10
2018-07-23T12:28:37.920Z,64.00
2018-07-23T12:31:06.415Z,65.90
2018-07-23T12:33:34.949Z,65.70
2018-07-23T12:36:03.805Z,62.00
2018-07-23T12:38:32.335Z,63.20
2018-07-23T12:41:00.818Z,62.80
2018-07-23T12:43:29.343Z,62.90
2018-07-23T12:45:57.863Z,64.30
2018-07-23T12:48:26.730Z,62.10
2018-07-23T12:50:55.215Z,61.90
2018-07-23T12:53:23.766Z,64.00
2018-07-23T12:55:52.430Z,63.60
2018-07-23T12:58:20.974Z,65.10
2018-07-23T13:03:17.693Z,67.70
2018-07-23T13:05:46.226Z,67.70
2018-07-23T13:08:14.827Z,67.70
2018-07-23T13:10:43.784Z,68.40
2018-07-23T13:13:12.408Z,67.80
2018-07-23T13:15:40.919Z,65.60
2018-07-23T13:18:09.431Z,62.60
2018-07-23T13:20:37.947Z,65.40
2018-07-23T13:23:06.475Z,63.00
2018-07-23T13:25:35.009Z,63.90
2018-07-23T13:28:05.951Z,63.70
2018-07-23T13:30:36.043Z,63.10
2018-07-23T13:33:08.964Z,63.50
2018-07-23T13:35:39.972Z,61.20
2018-07-23T13:38:08.777Z,63.10
2018-07-23T13:40:37.423Z,64.80
2018-07-23T13:43:07.735Z,64.00
2018-07-23T13:45:36.725Z,63.70
2018-07-23T13:48:08.506Z,64.30
2018-07-23T13:50:37.368Z,62.40
2018-07-23T13:53:05.898Z,64.60
2018-07-23T13:55:34.395Z,63.60
2018-07-23T13:58:02.927Z,64.50
2018-07-23T14:00:31.392Z,64.00
2018-07-23T14:02:59.922Z,66.00
2018-07-23T14:05:28.446Z,63.50
2018-07-23T14:07:56.996Z,64.10
2018-07-23T14:10:25.499Z,62.10
2018-07-23T14:12:54.028Z,61.30
2018-07-23T14:15:22.548Z,62.80
2018-07-23T14:17:51.045Z,62.60
2018-07-23T14:20:19.564Z,62.20
2018-07-23T14:22:48.102Z,61.20
2018-07-23T14:25:16.602Z,61.60
2018-07-23T14:27:45.113Z,61.00
2018-07-23T14:30:13.628Z,62.00
2018-07-23T14:32:42.301Z,62.00
2018-07-23T14:35:10.806Z,60.70
2018-07-23T14:37:39.373Z,60.80
2018-07-23T14:40:21.696Z,61.80
2018-07-23T14:42:58.391Z,61.20
2018-07-23T14:45:27.015Z,62.50
2018-07-23T14:47:57.835Z,62.00
2018-07-23T14:50:43.323Z,63.30
2018-07-23T14:53:12.866Z,60.20
2018-07-23T14:55:42.964Z,59.30
2018-07-23T14:58:11.581Z,58.80
2018-07-23T15:00:40.073Z,59.10
2018-07-23T15:03:08.578Z,58.90
2018-07-23T15:08:05.611Z,60.50
2018-07-23T15:10:34.111Z,57.70
2018-07-23T15:13:02.641Z,59.30
2018-07-23T15:15:31.123Z,58.50
2018-07-23T15:17:59.608Z,57.80
2018-07-23T15:20:28.143Z,59.10
2018-07-23T15:22:56.622Z,58.80
2018-07-23T15:25:25.116Z,61.40
2018-07-23T15:27:53.696Z,60.40
2018-07-23T15:30:22.224Z,60.10
2018-07-23T15:32:50.704Z,59.80
2018-07-23T15:35:19.228Z,59.40
2018-07-23T15:37:47.766Z,58.70
2018-07-23T15:40:16.663Z,59.50
2018-07-23T15:42:45.195Z,59.50
2018-07-23T15:45:13.986Z,58.20
2018-07-23T15:47:42.727Z,59.50
2018-07-23T15:50:11.262Z,60.50
2018-07-23T15:52:39.766Z,59.30
2018-07-23T15:55:08.484Z,61.20
2018-07-23T15:57:36.955Z,60.40
2018-07-23T16:00:07.007Z,62.40
2018-07-23T16:02:35.728Z,60.80
2018-07-23T16:05:04.642Z,62.70
2018-07-23T16:07:33.555Z,60.70
2018-07-23T16:10:02.948Z,60.80
2018-07-23T16:12:31.441Z,60.20
2018-07-23T16:14:59.950Z,60.10
2018-07-23T16:17:28.431Z,60.90
2018-07-23T16:19:57.061Z,61.50
2018-07-23T16:22:25.559Z,60.60
2018-07-23T16:24:54.050Z,61.60
2018-07-23T16:27:22.610Z,61.40
2018-07-23T16:29:51.120Z,59.70
2018-07-23T16:32:19.967Z,60.40
2018-07-23T16:34:48.534Z,58.50
2018-07-23T16:37:17.030Z,57.80
2018-07-23T16:39:45.557Z,57.90
2018-07-23T16:42:14.066Z,58.10
2018-07-23T16:44:42.610Z,58.60
2018-07-23T16:47:11.112Z,59.50
2018-07-23T16:49:39.606Z,59.70
2018-07-23T16:52:11.770Z,60.20
2018-07-23T16:54:47.157Z,60.00
2018-07-23T16:57:15.729Z,61.70
2018-07-23T16:59:44.323Z,61.30
2018-07-23T17:02:12.884Z,60.80
2018-07-23T17:04:41.660Z,61.60
2018-07-23T17:07:10.632Z,60.40
2018-07-23T17:09:39.511Z,59.90
2018-07-23T17:12:08.330Z,61.40
2018-07-23T17:14:36.856Z,60.90
2018-07-23T17:17:05.367Z,61.60
2018-07-23T17:19:33.891Z,59.80
2018-07-23T17:22:02.409Z,61.10
2018-07-23T17:24:32.249Z,62.30
2018-07-23T17:27:00.739Z,61.80
2018-07-23T17:29:29.245Z,63.50
2018-07-23T17:31:57.755Z,64.80
2018-07-23T17:34:26.261Z,65.60
2018-07-23T17:36:54.776Z,65.30
2018-07-23T17:39:23.272Z,65.50
2018-07-23T17:41:51.778Z,66.90
2018-07-23T17:44:20.334Z,66.70
2018-07-23T17:46:48.911Z,68.30
2018-07-23T17:49:17.411Z,68.90
2018-07-23T17:51:47.844Z,70.70
2018-07-23T17:54:19.058Z,70.40
2018-07-23T17:56:47.661Z,70.50
2018-07-23T17:59:18.236Z,71.20
2018-07-23T18:01:48.522Z,72.20
2018-07-23T18:04:19.467Z,72.20
2018-07-23T18:06:48.035Z,71.80
2018-07-23T18:09:16.874Z,71.80
2018-07-23T18:11:45.390Z,73.60
2018-07-23T18:14:13.909Z,73.90
2018-07-23T18:16:42.426Z,74.80
2018-07-23T18:19:10.948Z,74.60
2018-07-23T18:21:39.453Z,74.80
2018-07-23T18:24:07.943Z,75.30
2018-07-23T18:26:36.445Z,77.40
2018-07-23T18:29:05.059Z,76.50
2018-07-23T18:31:33.587Z,76.50
2018-07-23T18:34:02.095Z,75.10
2018-07-23T18:36:30.632Z,76.20
2018-07-23T18:38:59.245Z,77.00
2018-07-23T18:41:28.672Z,76.30
2018-07-23T18:43:57.202Z,77.90
2018-07-23T18:46:27.212Z,78.50
2018-07-23T18:49:33.961Z,79.40
2018-07-23T18:52:02.966Z,79.40
2018-07-23T18:54:32.410Z,80.20
2018-07-23T18:57:02.107Z,80.00
2018-07-23T18:59:31.002Z,81.10
2018-07-23T19:02:02.493Z,83.50
2018-07-23T19:04:31.366Z,88.20
2018-07-23T19:07:00.634Z,82.60
2018-07-23T19:09:29.766Z,85.20
2018-07-23T19:11:59.103Z,83.50
2018-07-23T19:14:27.719Z,87.50
2018-07-23T19:16:57.274Z,86.70
2018-07-23T19:19:26.093Z,84.70
2018-07-23T19:21:55.346Z,92.40
2018-07-23T19:24:24.298Z,93.20
2018-07-23T19:26:52.850Z,93.50
2018-07-23T19:29:21.757Z,95.40
2018-07-23T19:31:50.289Z,95.60
2018-07-23T19:34:19.485Z,95.30
2018-07-23T19:36:48.543Z,95.20
2018-07-23T19:39:18.532Z,94.80
2018-07-23T19:41:47.061Z,98.20
2018-07-23T19:44:15.724Z,97.00
2018-07-23T19:46:44.775Z,98.10
2018-07-23T19:49:13.318Z,97.90
2018-07-23T19:51:41.983Z,99.90
2018-07-23T19:54:10.954Z,99.90
2018-07-23T19:56:39.490Z,95.50
2018-07-23T19:59:08.047Z,95.00
2018-07-23T20:01:36.570Z,95.40
2018-07-23T20:04:05.199Z,94.80
2018-07-23T20:06:33.739Z,94.90
2018-07-23T20:09:02.749Z,95.30
2018-07-23T20:11:32.097Z,96.80
2018-07-23T20:14:00.618Z,97.10
2018-07-23T20:16:30.650Z,96.50
2018-07-23T20:18:59.660Z,97.10
2018-07-23T20:21:28.806Z,97.80
2018-07-23T20:23:57.574Z,99.20
2018-07-23T20:26:26.769Z,98.40
2018-07-23T20:28:55.275Z,99.90
2018-07-23T20:31:23.775Z,99.90
2018-07-23T20:33:52.258Z,99.90
2018-07-23T20:36:21.517Z,99.90
2018-07-23T20:38:50.018Z,99.90
2018-07-23T20:41:18.729Z,99.90
2018-07-23T20:43:47.195Z,99.90
2018-07-23T20:46:15.750Z,99.90
2018-07-23T20:48:44.291Z,99.90
2018-07-23T20:51:12.901Z,99.90
2018-07-23T20:53:41.438Z,99.90
2018-07-23T20:56:09.971Z,99.90
2018-07-23T20:58:38.648Z,99.90
2018-07-23T21:01:07.580Z,99.90
2018-07-23T21:03:36.106Z,99.90
2018-07-23T21:06:06.192Z,99.90
2018-07-23T21:08:34.795Z,99.90
2018-07-23T21:11:03.439Z,99.90
2018-07-23T21:13:31.927Z,99.90
2018-07-23T21:16:02.016Z,99.90
2018-07-23T21:18:31.381Z,99.90
2018-07-23T21:21:02.465Z,99.90
2018-07-23T21:23:32.062Z,99.90
2018-07-23T21:26:01.849Z,99.90
2018-07-23T21:28:30.351Z,99.90
2018-07-23T21:33:28.594Z,99.90
2018-07-23T21:35:57.695Z,99.90
2018-07-23T21:38:26.414Z,99.90
2018-07-23T21:40:55.775Z,99.90
2018-07-23T21:43:24.636Z,99.90
2018-07-23T21:45:56.548Z,99.90
2018-07-23T21:48:25.130Z,99.90
2018-07-23T21:50:53.965Z,99.90
2018-07-23T21:53:24.004Z,99.90
2018-07-23T21:55:56.480Z,99.90
2018-07-23T21:58:28.488Z,99.90
2018-07-23T22:00:58.204Z,99.90
2018-07-23T22:03:26.781Z,99.90
2018-07-23T22:05:55.323Z,99.90
2018-07-23T22:08:24.055Z,99.90
2018-07-23T22:10:56.187Z,99.90
2018-07-23T22:13:25.037Z,99.90
2018-07-23T22:15:53.948Z,99.90
2018-07-23T22:18:23.589Z,99.90
2018-07-23T22:20:52.170Z,99.90
2018-07-23T22:23:21.877Z,99.90
2018-07-23T22:25:50.903Z,99.90
2018-07-23T22:28:20.757Z,99.90
2018-07-23T22:30:49.851Z,99.90
2018-07-23T22:33:18.611Z,99.90
2018-07-23T22:35:47.400Z,99.90
2018-07-23T22:38:16.170Z,99.90
2018-07-23T22:40:46.170Z,99.90
2018-07-23T22:43:14.917Z,99.90
2018-07-23T22:45:43.509Z,99.90
2018-07-23T22:48:12.313Z,99.90
2018-07-23T22:50:41.059Z,99.90
2018-07-23T22:53:09.724Z,99.90
2018-07-23T22:55:38.442Z,99.90
2018-07-23T22:58:07.167Z,99.90
2018-07-23T23:00:35.906Z,99.90
2018-07-23T23:03:04.668Z,99.90
2018-07-23T23:05:35.625Z,99.90
2018-07-23T23:08:05.642Z,99.90
2018-07-23T23:10:35.665Z,99.90
2018-07-23T23:13:05.520Z,99.90
2018-07-23T23:15:35.140Z,99.90
2018-07-23T23:18:07.362Z,99.90
2018-07-23T23:20:50.277Z,99.90
2018-07-23T23:23:20.437Z,99.90
2018-07-23T23:25:55.301Z,99.90
2018-07-23T23:28:25.432Z,99.90
2018-07-23T23:30:56.713Z,99.90
2018-07-23T23:33:28.757Z,99.90
2018-07-23T23:36:02.547Z,99.90
2018-07-23T23:38:38.389Z,99.90
2018-07-23T23:41:07.016Z,99.90
2018-07-23T23:43:35.538Z,99.90
2018-07-23T23:46:04.023Z,99.90
2018-07-23T23:48:32.559Z,99.90
2018-07-23T23:51:01.040Z,99.90
2018-07-23T23:53:29.717Z,99.90
2018-07-23T23:55:58.304Z,99.90
2018-07-23T23:58:29.044Z,99.90
